createdAt,value
2023-07-02T00:01:16.489Z,17.90
2023-07-02T00:04:47.898Z,17.20
2023-07-02T00:07:58.685Z,16.50
2023-07-02T00:11:24.983Z,16.10
2023-07-02T00:14:31.052Z,17.70
2023-07-02T00:18:11.817Z,15.00
2023-07-02T00:21:15.406Z,12.30
2023-07-02T00:24:42.720Z,15.60
2023-07-02T00:27:47.823Z,12.80
2023-07-02T00:31:11.147Z,13.20
2023-07-02T00:34:15.629Z,12.30
2023-07-02T00:37:24.546Z,16.20
2023-07-02T00:40:28.914Z,11.60
2023-07-02T00:43:56.640Z,11.50
2023-07-02T00:47:23.377Z,10.00
2023-07-02T00:50:48.290Z,8.40
2023-07-02T00:53:56.086Z,11.20
2023-07-02T00:57:09.516Z,11.10
2023-07-02T01:00:32.693Z,10.70
2023-07-02T01:03:55.313Z,9.60
2023-07-02T01:07:26.700Z,9.30
2023-07-02T01:10:34.121Z,9.00
2023-07-02T01:13:37.022Z,8.60
2023-07-02T01:16:47.125Z,11.80
2023-07-02T01:20:11.752Z,11.30
2023-07-02T01:23:25.986Z,9.80
2023-07-02T01:26:35.388Z,8.10
2023-07-02T01:30:54.175Z,11.40
2023-07-02T01:33:57.942Z,11.70
2023-07-02T01:37:19.483Z,9.60
2023-07-02T01:40:23.725Z,8.70
2023-07-02T01:43:27.341Z,10.10
2023-07-02T01:46:33.619Z,8.90
2023-07-02T01:49:40.028Z,10.30
2023-07-02T01:53:23.281Z,10.10
2023-07-02T01:56:30.294Z,10.00
2023-07-02T01:59:39.301Z,10.40
2023-07-02T02:03:00.100Z,10.10
2023-07-02T02:06:03.993Z,10.40
2023-07-02T02:09:09.676Z,11.10
2023-07-02T02:12:37.065Z,10.40
2023-07-02T02:15:42.991Z,10.60
2023-07-02T02:18:46.325Z,9.90
2023-07-02T02:21:52.763Z,12.00
2023-07-02T02:24:58.787Z,11.70
2023-07-02T02:28:06.067Z,9.80
2023-07-02T02:31:12.578Z,10.60
2023-07-02T02:34:16.244Z,9.80
2023-07-02T02:37:19.818Z,11.00
2023-07-02T02:40:22.591Z,10.40
2023-07-02T02:43:25.422Z,10.70
2023-07-02T02:46:28.494Z,11.40
2023-07-02T02:49:31.654Z,9.30
2023-07-02T02:52:34.533Z,10.90
2023-07-02T02:55:37.820Z,10.80
2023-07-02T02:58:41.763Z,10.70
2023-07-02T03:01:44.663Z,9.70
2023-07-02T03:04:47.542Z,9.60
2023-07-02T03:07:51.865Z,9.10
2023-07-02T03:10:54.671Z,10.30
2023-07-02T03:13:57.458Z,10.00
2023-07-02T03:17:00.774Z,10.30
2023-07-02T03:20:09.207Z,10.10
2023-07-02T03:23:11.961Z,8.80
2023-07-02T03:26:14.845Z,8.60
2023-07-02T03:29:17.741Z,9.90
2023-07-02T03:32:20.565Z,9.70
2023-07-02T03:35:23.295Z,8.80
2023-07-02T03:38:26.173Z,8.60
2023-07-02T03:41:30.454Z,9.40
2023-07-02T03:44:33.215Z,8.50
2023-07-02T03:47:36.758Z,8.90
2023-07-02T03:50:39.748Z,7.70
2023-07-02T03:53:43.144Z,6.70
2023-07-02T03:56:45.973Z,8.90
2023-07-02T03:59:48.719Z,7.00
2023-07-02T04:02:51.764Z,9.00
2023-07-02T04:05:54.733Z,8.70
2023-07-02T04:08:57.527Z,7.10
2023-07-02T04:12:02.652Z,6.80
2023-07-02T04:15:06.384Z,6.90
2023-07-02T04:18:09.512Z,7.70
2023-07-02T04:21:12.358Z,8.60
2023-07-02T04:24:15.516Z,8.70
2023-07-02T04:27:33.392Z,7.90
2023-07-02T04:30:43.285Z,11.40
2023-07-02T04:33:46.079Z,10.50
2023-07-02T04:36:49.822Z,9.50
2023-07-02T04:39:53.760Z,8.90
2023-07-02T04:42:59.500Z,7.00
2023-07-02T04:46:02.949Z,8.40
2023-07-02T04:49:05.721Z,8.20
2023-07-02T04:52:08.518Z,8.80
2023-07-02T04:55:11.715Z,7.70
2023-07-02T04:58:14.603Z,7.10
2023-07-02T05:01:17.368Z,10.30
2023-07-02T05:04:20.212Z,12.00
2023-07-02T05:07:23.017Z,8.60
2023-07-02T05:10:25.915Z,8.30
2023-07-02T05:13:29.163Z,8.00
2023-07-02T05:16:32.058Z,7.40
2023-07-02T05:19:34.839Z,10.60
2023-07-02T05:22:37.686Z,9.20
2023-07-02T05:25:40.560Z,13.20
2023-07-02T05:28:43.440Z,13.80
2023-07-02T05:31:46.425Z,12.00
2023-07-02T05:34:49.422Z,10.60
2023-07-02T05:37:52.206Z,11.20
2023-07-02T05:40:54.962Z,16.30
2023-07-02T05:43:59.037Z,14.80
2023-07-02T05:47:01.921Z,13.60
2023-07-02T05:50:05.526Z,10.30
2023-07-02T05:53:10.396Z,14.70
2023-07-02T05:56:13.127Z,14.30
2023-07-02T05:59:19.029Z,11.50
2023-07-02T06:02:21.779Z,13.80
2023-07-02T06:05:24.661Z,15.60
2023-07-02T06:08:27.665Z,16.40
2023-07-02T06:11:30.521Z,10.90
2023-07-02T06:14:33.280Z,8.60
2023-07-02T06:17:37.373Z,7.60
2023-07-02T06:20:40.824Z,5.80
2023-07-02T06:23:44.819Z,6.70
2023-07-02T06:26:47.593Z,8.30
2023-07-02T06:29:52.179Z,4.20
2023-07-02T06:32:55.990Z,4.80
2023-07-02T06:35:58.947Z,4.80
2023-07-02T06:39:02.147Z,4.40
2023-07-02T06:42:05.216Z,4.70
2023-07-02T06:45:08.517Z,4.30
2023-07-02T06:48:11.327Z,4.90
2023-07-02T06:51:16.018Z,3.90
2023-07-02T06:54:18.829Z,3.30
2023-07-02T06:57:21.954Z,5.40
2023-07-02T07:00:24.904Z,5.80
2023-07-02T07:03:28.173Z,5.00
2023-07-02T07:06:30.960Z,4.50
2023-07-02T07:09:33.721Z,5.90
2023-07-02T07:12:36.606Z,5.70
2023-07-02T07:15:39.520Z,5.10
2023-07-02T07:18:42.346Z,4.60
2023-07-02T07:21:45.215Z,4.30
2023-07-02T07:24:48.033Z,4.90
2023-07-02T07:27:50.739Z,5.00
2023-07-02T07:30:53.567Z,4.30
2023-07-02T07:33:56.359Z,3.70
2023-07-02T07:36:59.095Z,3.70
2023-07-02T07:40:01.889Z,5.50
2023-07-02T07:43:04.677Z,5.10
2023-07-02T07:46:07.549Z,5.10
2023-07-02T07:49:10.385Z,4.50
2023-07-02T07:52:13.182Z,3.80
2023-07-02T07:55:16.157Z,4.40
2023-07-02T07:58:19.132Z,3.30
2023-07-02T08:01:21.969Z,6.20
2023-07-02T08:04:24.991Z,4.90
2023-07-02T08:07:27.750Z,2.60
2023-07-02T08:10:30.476Z,6.00
2023-07-02T08:13:33.416Z,4.70
2023-07-02T08:16:36.207Z,4.20
2023-07-02T08:19:38.973Z,6.90
2023-07-02T08:22:42.033Z,4.50
2023-07-02T08:25:44.803Z,4.40
2023-07-02T08:28:47.582Z,5.40
2023-07-02T08:31:50.484Z,4.30
2023-07-02T08:34:53.668Z,4.30
2023-07-02T08:37:57.946Z,5.80
2023-07-02T08:41:00.710Z,4.40
2023-07-02T08:44:05.678Z,4.90
2023-07-02T08:47:08.676Z,4.70
2023-07-02T08:50:12.558Z,4.50
2023-07-02T08:53:15.360Z,4.80
2023-07-02T08:56:18.185Z,4.20
2023-07-02T08:59:21.069Z,5.40
2023-07-02T09:02:34.544Z,3.50
2023-07-02T09:05:37.612Z,3.00
2023-07-02T09:08:40.559Z,3.30
2023-07-02T09:11:52.534Z,3.20
2023-07-02T09:15:07.773Z,3.20
2023-07-02T09:18:21.502Z,3.80
2023-07-02T09:21:27.120Z,2.60
2023-07-02T09:24:31.767Z,2.70
2023-07-02T09:27:42.527Z,2.60
2023-07-02T09:30:57.297Z,3.50
2023-07-02T09:34:03.959Z,4.40
2023-07-02T09:37:07.339Z,3.10
2023-07-02T09:40:10.785Z,3.80
2023-07-02T09:43:13.771Z,2.50
2023-07-02T09:46:16.791Z,3.40
2023-07-02T09:49:21.612Z,2.70
2023-07-02T09:55:33.726Z,3.20
2023-07-02T09:58:39.709Z,3.50
2023-07-02T10:01:45.031Z,2.80
2023-07-02T10:04:56.090Z,2.80
2023-07-02T10:08:15.728Z,2.80
2023-07-02T10:11:21.668Z,2.10
2023-07-02T10:14:53.388Z,3.00
2023-07-02T10:18:01.886Z,2.40
2023-07-02T10:21:24.452Z,4.60
2023-07-02T10:24:30.720Z,3.10
2023-07-02T10:27:44.483Z,2.80
2023-07-02T10:30:50.125Z,2.60
2023-07-02T10:34:09.611Z,3.30
2023-07-02T10:37:20.226Z,3.90
2023-07-02T10:40:23.947Z,3.90
2023-07-02T10:43:35.006Z,3.40
2023-07-02T10:47:09.061Z,1.70
2023-07-02T10:50:42.377Z,2.80
2023-07-02T10:54:07.213Z,2.00
2023-07-02T10:57:12.173Z,1.70
2023-07-02T11:00:21.019Z,2.00
2023-07-02T11:03:50.088Z,1.50
2023-07-02T11:07:04.589Z,1.70
2023-07-02T11:10:11.595Z,3.10
2023-07-02T11:13:21.480Z,2.10
2023-07-02T11:16:31.154Z,2.80
2023-07-02T11:19:36.733Z,1.70
2023-07-02T11:22:51.402Z,2.20
2023-07-02T11:25:59.707Z,2.10
2023-07-02T11:29:03.589Z,2.00
2023-07-02T11:32:20.419Z,2.20
2023-07-02T11:35:36.104Z,2.60
2023-07-02T11:38:42.201Z,2.10
2023-07-02T11:41:47.668Z,1.50
2023-07-02T11:44:58.097Z,1.90
2023-07-02T11:48:02.587Z,2.10
2023-07-02T11:51:13.072Z,2.10
2023-07-02T11:54:20.231Z,2.70
2023-07-02T11:57:24.527Z,3.20
2023-07-02T12:00:29.777Z,2.60
2023-07-02T12:03:39.510Z,4.30
2023-07-02T12:06:57.052Z,2.60
2023-07-02T12:10:00.741Z,1.50
2023-07-02T12:13:04.083Z,1.90
2023-07-02T12:16:08.981Z,2.60
2023-07-02T12:19:14.486Z,2.00
2023-07-02T12:22:25.075Z,2.50
2023-07-02T12:25:30.320Z,2.20
2023-07-02T12:28:38.660Z,2.00
2023-07-02T12:31:51.867Z,2.20
2023-07-02T12:35:08.976Z,2.20
2023-07-02T12:38:22.457Z,2.20
2023-07-02T12:41:32.205Z,2.20
2023-07-02T12:44:36.188Z,2.70
2023-07-02T12:47:47.332Z,1.80
2023-07-02T12:51:06.808Z,1.80
2023-07-02T12:54:13.011Z,1.90
2023-07-02T12:57:18.599Z,4.10
2023-07-02T13:00:26.145Z,2.40
2023-07-02T13:03:33.627Z,1.80
2023-07-02T13:06:42.439Z,1.50
2023-07-02T13:09:47.582Z,3.40
2023-07-02T13:13:10.141Z,2.50
2023-07-02T13:16:23.968Z,2.60
2023-07-02T13:19:37.433Z,2.50
2023-07-02T13:22:41.534Z,2.80
2023-07-02T13:25:45.440Z,2.50
2023-07-02T13:28:52.186Z,2.80
2023-07-02T13:32:00.205Z,3.10
2023-07-02T13:35:04.126Z,2.60
2023-07-02T13:38:15.109Z,2.80
2023-07-02T13:41:18.116Z,2.40
2023-07-02T13:44:24.823Z,3.70
2023-07-02T13:47:30.351Z,3.40
2023-07-02T13:50:54.392Z,2.70
2023-07-02T13:54:21.481Z,3.90
2023-07-02T13:57:30.293Z,3.70
2023-07-02T14:03:38.891Z,2.30
2023-07-02T14:07:01.449Z,2.30
2023-07-02T14:10:05.602Z,2.50
2023-07-02T14:13:11.620Z,3.80
2023-07-02T14:16:26.056Z,2.80
2023-07-02T14:19:44.768Z,2.00
2023-07-02T14:22:49.344Z,2.10
2023-07-02T14:26:00.932Z,2.20
2023-07-02T14:29:04.612Z,1.70
2023-07-02T14:32:26.005Z,2.40
2023-07-02T14:35:32.720Z,2.00
2023-07-02T14:38:36.757Z,3.30
2023-07-02T14:41:41.012Z,2.20
2023-07-02T14:44:53.086Z,2.20
2023-07-02T14:48:01.841Z,3.10
2023-07-02T14:51:09.385Z,3.20
2023-07-02T14:54:12.452Z,2.10
2023-07-02T14:57:18.552Z,2.00
2023-07-02T15:00:23.824Z,1.70
2023-07-02T15:03:30.834Z,1.80
2023-07-02T15:06:58.177Z,1.80
2023-07-02T15:10:21.657Z,3.10
2023-07-02T15:13:32.213Z,3.80
2023-07-02T15:16:39.816Z,2.40
2023-07-02T15:19:47.145Z,1.70
2023-07-02T15:22:51.341Z,2.80
2023-07-02T15:26:02.897Z,2.30
2023-07-02T15:29:12.691Z,2.40
2023-07-02T15:32:24.105Z,2.30
2023-07-02T15:35:36.086Z,1.90
2023-07-02T15:38:39.792Z,2.10
2023-07-02T15:41:45.057Z,1.80
2023-07-02T15:44:52.408Z,1.80
2023-07-02T15:48:10.771Z,2.20
2023-07-02T15:51:27.577Z,3.00
2023-07-02T15:54:43.506Z,1.80
2023-07-02T15:57:50.900Z,1.70
2023-07-02T16:01:13.717Z,1.50
2023-07-02T16:04:17.849Z,2.30
2023-07-02T16:07:25.260Z,2.10
2023-07-02T16:10:33.226Z,1.40
2023-07-02T16:13:38.537Z,2.50
2023-07-02T16:16:56.533Z,2.50
2023-07-02T16:20:02.375Z,2.10
2023-07-02T16:23:09.587Z,3.70
2023-07-02T16:26:15.050Z,2.20
2023-07-02T16:29:21.489Z,2.00
2023-07-02T16:32:28.822Z,2.50
2023-07-02T16:35:37.166Z,2.00
2023-07-02T16:38:46.719Z,2.00
2023-07-02T16:41:54.358Z,2.50
2023-07-02T16:45:01.617Z,2.10
2023-07-02T16:48:07.969Z,3.00
2023-07-02T16:51:15.127Z,1.90
2023-07-02T16:54:25.124Z,2.30
2023-07-02T16:57:48.424Z,2.40
2023-07-02T17:00:59.837Z,2.30
2023-07-02T17:04:04.446Z,1.90
2023-07-02T17:07:09.345Z,2.50
2023-07-02T17:10:17.781Z,3.00
2023-07-02T17:13:26.456Z,1.90
2023-07-02T17:16:37.983Z,2.10
2023-07-02T17:20:06.501Z,2.20
2023-07-02T17:26:19.852Z,2.30
2023-07-02T17:30:00.117Z,1.90
2023-07-02T17:33:07.526Z,3.20
2023-07-02T17:36:19.292Z,5.00
2023-07-02T17:39:24.557Z,3.60
2023-07-02T17:42:27.980Z,2.50
2023-07-02T17:45:42.037Z,2.70
2023-07-02T17:48:46.425Z,3.40
2023-07-02T17:51:51.099Z,2.60
2023-07-02T17:55:00.904Z,3.60
2023-07-02T17:58:05.224Z,2.30
2023-07-02T18:01:09.103Z,2.00
2023-07-02T18:04:29.682Z,2.50
2023-07-02T18:07:38.988Z,2.20
2023-07-02T18:11:05.996Z,2.80
2023-07-02T18:14:12.620Z,3.10
2023-07-02T18:17:18.021Z,3.50
2023-07-02T18:20:25.798Z,5.60
2023-07-02T18:23:30.812Z,6.30
2023-07-02T18:26:34.484Z,4.50
2023-07-02T18:29:41.766Z,5.80
2023-07-02T18:32:52.389Z,4.90
2023-07-02T18:35:59.297Z,3.90
2023-07-02T18:39:06.443Z,3.70
2023-07-02T18:42:15.902Z,6.60
2023-07-02T18:45:29.819Z,4.40
2023-07-02T18:48:34.170Z,4.20
2023-07-02T18:51:39.564Z,4.40
2023-07-02T18:54:44.247Z,6.50
2023-07-02T18:57:49.065Z,5.30
2023-07-02T19:00:56.354Z,5.20
2023-07-02T19:04:01.632Z,6.20
2023-07-02T19:07:07.857Z,6.00
2023-07-02T19:10:19.163Z,4.60
2023-07-02T19:13:25.683Z,5.30
2023-07-02T19:16:29.719Z,4.70
2023-07-02T19:19:44.664Z,3.90
2023-07-02T19:22:49.782Z,6.00
2023-07-02T19:25:58.643Z,7.50
2023-07-02T19:29:23.298Z,4.30
2023-07-02T19:32:33.371Z,3.70
2023-07-02T19:35:44.520Z,4.90
2023-07-02T19:38:50.824Z,5.00
2023-07-02T19:41:55.462Z,4.50
2023-07-02T19:45:00.491Z,4.00
2023-07-02T19:48:09.339Z,7.50
2023-07-02T19:51:19.222Z,3.80
2023-07-02T19:54:22.436Z,4.20
2023-07-02T19:57:26.175Z,3.70
2023-07-02T20:00:31.112Z,4.20
2023-07-02T20:03:34.497Z,3.20
2023-07-02T20:06:39.803Z,3.90
2023-07-02T20:09:44.061Z,4.40
2023-07-02T20:12:49.497Z,3.80
2023-07-02T20:15:58.260Z,5.20
2023-07-02T20:19:10.005Z,4.90
2023-07-02T20:22:14.288Z,4.80
2023-07-02T20:28:29.498Z,5.20
2023-07-02T20:31:33.804Z,4.10
2023-07-02T20:34:38.345Z,4.50
2023-07-02T20:37:42.254Z,3.40
2023-07-02T20:40:47.141Z,4.00
2023-07-02T20:43:52.211Z,2.90
2023-07-02T20:46:56.858Z,6.40
2023-07-02T20:50:15.152Z,4.10
2023-07-02T20:53:38.465Z,3.70
2023-07-02T20:56:43.667Z,4.10
2023-07-02T20:59:54.896Z,3.90
2023-07-02T21:03:00.694Z,5.00
2023-07-02T21:06:27.755Z,3.60
2023-07-02T21:09:35.012Z,3.20
2023-07-02T21:12:39.597Z,3.20
2023-07-02T21:15:44.017Z,4.00
2023-07-02T21:19:11.314Z,3.90
2023-07-02T21:22:16.033Z,4.00
2023-07-02T21:25:19.857Z,4.70
2023-07-02T21:28:26.845Z,4.40
2023-07-02T21:31:36.601Z,5.20
2023-07-02T21:34:45.457Z,4.90
2023-07-02T21:37:50.882Z,4.50
2023-07-02T21:40:58.360Z,4.80
2023-07-02T21:44:21.159Z,4.00
2023-07-02T21:47:31.144Z,3.70
2023-07-02T21:50:35.877Z,4.00
2023-07-02T21:53:40.726Z,5.30
2023-07-02T21:56:49.137Z,4.60
2023-07-02T22:00:00.487Z,5.30
2023-07-02T22:03:18.860Z,3.70
2023-07-02T22:06:29.404Z,4.40
2023-07-02T22:09:35.499Z,4.20
2023-07-02T22:12:41.948Z,4.70
2023-07-02T22:15:49.662Z,3.70
2023-07-02T22:19:07.490Z,5.60
2023-07-02T22:22:21.272Z,4.20
2023-07-02T22:25:29.719Z,4.40
2023-07-02T22:28:57.089Z,4.50
2023-07-02T22:32:33.146Z,5.70
2023-07-02T22:35:37.149Z,4.30
2023-07-02T22:38:51.159Z,4.70
2023-07-02T22:41:59.612Z,5.10
2023-07-02T22:45:14.606Z,4.80
2023-07-02T22:48:34.685Z,4.90
2023-07-02T22:52:01.363Z,4.20
2023-07-02T22:55:11.308Z,5.70
2023-07-02T22:58:27.072Z,4.60
2023-07-02T23:01:43.088Z,6.60
2023-07-02T23:05:06.564Z,3.80
2023-07-02T23:08:30.798Z,5.80
2023-07-02T23:11:38.033Z,6.20
2023-07-02T23:14:50.844Z,6.10
2023-07-02T23:18:11.305Z,7.00
2023-07-02T23:21:18.368Z,6.60
2023-07-02T23:24:39.648Z,6.00
2023-07-02T23:28:07.252Z,7.70
2023-07-02T23:31:44.675Z,6.00
2023-07-02T23:34:57.201Z,9.10
2023-07-02T23:38:07.535Z,5.10
2023-07-02T23:41:39.774Z,5.90
2023-07-02T23:44:53.402Z,6.20
2023-07-02T23:47:57.406Z,6.00
2023-07-02T23:51:08.783Z,5.80
2023-07-02T23:54:32.676Z,5.50
2023-07-02T23:57:36.156Z,5.50
